sensor_id;sensor_type;location;lat;lon;timestamp;pressure;altitude;pressure_sealevel;temperature;humidity
79705;BME280;69940;53.120;8.764;2023-09-19T00:01:00;100456.00;;;18.69;78.24
79705;BME280;69940;53.120;8.764;2023-09-19T00:03:31;100459.00;;;18.67;78.34
79705;BME280;69940;53.120;8.764;2023-09-19T00:06:01;100461.00;;;18.65;78.41
79705;BME280;69940;53.120;8.764;2023-09-19T00:08:29;100461.00;;;18.64;78.48
79705;BME280;69940;53.120;8.764;2023-09-19T00:11:07;100464.00;;;18.63;78.45
79705;BME280;69940;53.120;8.764;2023-09-19T00:13:32;100466.00;;;18.61;78.46
79705;BME280;69940;53.120;8.764;2023-09-19T00:16:00;100470.00;;;18.60;78.47
79705;BME280;69940;53.120;8.764;2023-09-19T00:18:33;100474.00;;;18.59;78.49
79705;BME280;69940;53.120;8.764;2023-09-19T00:21:00;100476.00;;;18.59;78.49
79705;BME280;69940;53.120;8.764;2023-09-19T00:23:32;100479.00;;;18.59;78.62
79705;BME280;69940;53.120;8.764;2023-09-19T00:26:00;100481.00;;;18.59;78.56
79705;BME280;69940;53.120;8.764;2023-09-19T00:28:32;100483.00;;;18.59;78.67
79705;BME280;69940;53.120;8.764;2023-09-19T00:31:02;100485.00;;;18.59;78.76
79705;BME280;69940;53.120;8.764;2023-09-19T00:33:30;100488.00;;;18.60;78.69
79705;BME280;69940;53.120;8.764;2023-09-19T00:36:03;100490.00;;;18.61;78.75
79705;BME280;69940;53.120;8.764;2023-09-19T00:38:30;100492.00;;;18.61;78.70
79705;BME280;69940;53.120;8.764;2023-09-19T00:41:00;100495.00;;;18.61;78.59
79705;BME280;69940;53.120;8.764;2023-09-19T00:43:30;100498.00;;;18.60;78.72
79705;BME280;69940;53.120;8.764;2023-09-19T00:46:03;100505.00;;;18.59;78.72
79705;BME280;69940;53.120;8.764;2023-09-19T00:48:30;100506.00;;;18.58;78.69
79705;BME280;69940;53.120;8.764;2023-09-19T00:51:02;100506.00;;;18.57;78.55
79705;BME280;69940;53.120;8.764;2023-09-19T00:53:30;100507.00;;;18.56;78.37
79705;BME280;69940;53.120;8.764;2023-09-19T00:56:02;100506.00;;;18.54;78.40
79705;BME280;69940;53.120;8.764;2023-09-19T00:58:36;100507.00;;;18.53;78.42
79705;BME280;69940;53.120;8.764;2023-09-19T01:01:00;100509.00;;;18.52;78.21
79705;BME280;69940;53.120;8.764;2023-09-19T01:03:29;100511.00;;;18.50;78.09
79705;BME280;69940;53.120;8.764;2023-09-19T01:06:01;100512.00;;;18.49;77.84
79705;BME280;69940;53.120;8.764;2023-09-19T01:08:30;100515.00;;;18.48;77.56
79705;BME280;69940;53.120;8.764;2023-09-19T01:11:03;100519.00;;;18.48;77.33
79705;BME280;69940;53.120;8.764;2023-09-19T01:13:55;100524.00;;;18.47;77.20
79705;BME280;69940;53.120;8.764;2023-09-19T01:16:10;100526.00;;;18.48;77.06
79705;BME280;69940;53.120;8.764;2023-09-19T01:28:31;100539.00;;;18.47;77.35
79705;BME280;69940;53.120;8.764;2023-09-19T01:31:03;100544.00;;;18.46;77.37
79705;BME280;69940;53.120;8.764;2023-09-19T01:33:53;100547.00;;;18.44;77.20
79705;BME280;69940;53.120;8.764;2023-09-19T01:36:00;100549.00;;;18.41;77.30
79705;BME280;69940;53.120;8.764;2023-09-19T01:38:30;100551.00;;;18.38;77.38
79705;BME280;69940;53.120;8.764;2023-09-19T01:41:05;100554.00;;;18.34;76.89
79705;BME280;69940;53.120;8.764;2023-09-19T01:43:38;100559.00;;;18.29;76.33
79705;BME280;69940;53.120;8.764;2023-09-19T01:46:19;100564.00;;;18.24;75.78
79705;BME280;69940;53.120;8.764;2023-09-19T01:48:42;100568.00;;;18.18;75.68
79705;BME280;69940;53.120;8.764;2023-09-19T01:51:01;100570.00;;;18.12;75.67
79705;BME280;69940;53.120;8.764;2023-09-19T01:53:50;100572.00;;;18.08;75.49
79705;BME280;69940;53.120;8.764;2023-09-19T01:56:05;100574.00;;;18.03;75.01
79705;BME280;69940;53.120;8.764;2023-09-19T01:58:39;100580.00;;;17.98;75.10
79705;BME280;69940;53.120;8.764;2023-09-19T02:01:01;100584.00;;;17.94;74.72
79705;BME280;69940;53.120;8.764;2023-09-19T02:03:31;100586.00;;;17.91;74.55
79705;BME280;69940;53.120;8.764;2023-09-19T02:06:00;100588.00;;;17.87;74.29
79705;BME280;69940;53.120;8.764;2023-09-19T02:08:34;100590.00;;;17.83;74.03
79705;BME280;69940;53.120;8.764;2023-09-19T02:11:00;100593.00;;;17.80;73.81
79705;BME280;69940;53.120;8.764;2023-09-19T02:13:32;100594.00;;;17.77;73.58
79705;BME280;69940;53.120;8.764;2023-09-19T02:16:00;100597.00;;;17.74;73.56
79705;BME280;69940;53.120;8.764;2023-09-19T02:18:31;100597.00;;;17.71;73.55
79705;BME280;69940;53.120;8.764;2023-09-19T02:20:59;100598.00;;;17.68;73.37
79705;BME280;69940;53.120;8.764;2023-09-19T02:23:31;100599.00;;;17.66;73.41
79705;BME280;69940;53.120;8.764;2023-09-19T02:26:01;100599.00;;;17.62;73.35
79705;BME280;69940;53.120;8.764;2023-09-19T02:28:32;100600.00;;;17.59;73.48
79705;BME280;69940;53.120;8.764;2023-09-19T02:31:00;100603.00;;;17.56;73.63
79705;BME280;69940;53.120;8.764;2023-09-19T02:33:33;100604.00;;;17.53;73.74
79705;BME280;69940;53.120;8.764;2023-09-19T02:36:00;100606.00;;;17.50;73.74
79705;BME280;69940;53.120;8.764;2023-09-19T02:38:30;100608.00;;;17.47;73.91
79705;BME280;69940;53.120;8.764;2023-09-19T02:41:00;100609.00;;;17.44;73.92
79705;BME280;69940;53.120;8.764;2023-09-19T02:43:30;100610.00;;;17.42;73.86
79705;BME280;69940;53.120;8.764;2023-09-19T02:46:00;100612.00;;;17.41;73.85
79705;BME280;69940;53.120;8.764;2023-09-19T02:48:30;100613.00;;;17.39;73.93
79705;BME280;69940;53.120;8.764;2023-09-19T02:51:00;100615.00;;;17.36;74.02
79705;BME280;69940;53.120;8.764;2023-09-19T02:53:32;100617.00;;;17.33;74.21
79705;BME280;69940;53.120;8.764;2023-09-19T02:56:00;100619.00;;;17.30;74.31
79705;BME280;69940;53.120;8.764;2023-09-19T02:58:36;100621.00;;;17.27;74.40
79705;BME280;69940;53.120;8.764;2023-09-19T03:01:10;100622.00;;;17.24;74.43
79705;BME280;69940;53.120;8.764;2023-09-19T03:03:30;100623.00;;;17.21;74.52
79705;BME280;69940;53.120;8.764;2023-09-19T03:06:00;100622.00;;;17.18;74.71
79705;BME280;69940;53.120;8.764;2023-09-19T03:08:30;100622.00;;;17.15;74.78
79705;BME280;69940;53.120;8.764;2023-09-19T03:11:03;100622.00;;;17.12;74.88
79705;BME280;69940;53.120;8.764;2023-09-19T03:13:32;100621.00;;;17.10;74.89
79705;BME280;69940;53.120;8.764;2023-09-19T03:16:00;100622.00;;;17.08;74.86
79705;BME280;69940;53.120;8.764;2023-09-19T03:18:30;100626.00;;;17.07;74.92
79705;BME280;69940;53.120;8.764;2023-09-19T03:21:03;100630.00;;;17.04;75.10
79705;BME280;69940;53.120;8.764;2023-09-19T03:23:34;100633.00;;;17.02;75.35
79705;BME280;69940;53.120;8.764;2023-09-19T03:26:02;100634.00;;;16.99;75.42
79705;BME280;69940;53.120;8.764;2023-09-19T03:28:33;100637.00;;;16.97;75.46
79705;BME280;69940;53.120;8.764;2023-09-19T03:31:03;100638.00;;;16.95;75.71
79705;BME280;69940;53.120;8.764;2023-09-19T03:33:37;100643.00;;;16.93;75.79
79705;BME280;69940;53.120;8.764;2023-09-19T03:36:07;100648.00;;;16.91;75.88
79705;BME280;69940;53.120;8.764;2023-09-19T04:20:41;100669.00;;;17.97;75.52
79705;BME280;69940;53.120;8.764;2023-09-19T04:23:09;100669.00;;;17.63;75.37
79705;BME280;69940;53.120;8.764;2023-09-19T04:25:40;100667.00;;;17.38;75.31
79705;BME280;69940;53.120;8.764;2023-09-19T04:28:09;100668.00;;;17.19;75.06
79705;BME280;69940;53.120;8.764;2023-09-19T04:30:38;100668.00;;;17.04;74.94
79705;BME280;69940;53.120;8.764;2023-09-19T04:33:08;100669.00;;;16.94;74.88
79705;BME280;69940;53.120;8.764;2023-09-19T04:35:39;100671.00;;;16.86;74.85
79705;BME280;69940;53.120;8.764;2023-09-19T04:38:08;100672.00;;;16.80;74.82
79705;BME280;69940;53.120;8.764;2023-09-19T04:40:40;100670.00;;;16.75;74.78
79705;BME280;69940;53.120;8.764;2023-09-19T04:43:08;100668.00;;;16.72;74.86
79705;BME280;69940;53.120;8.764;2023-09-19T04:45:39;100670.00;;;16.69;74.94
79705;BME280;69940;53.120;8.764;2023-09-19T04:48:09;100671.00;;;16.67;74.95
79705;BME280;69940;53.120;8.764;2023-09-19T04:50:38;100673.00;;;16.65;75.07
79705;BME280;69940;53.120;8.764;2023-09-19T04:53:07;100674.00;;;16.63;75.20
79705;BME280;69940;53.120;8.764;2023-09-19T04:55:38;100676.00;;;16.61;75.35
79705;BME280;69940;53.120;8.764;2023-09-19T04:58:08;100679.00;;;16.58;75.50
79705;BME280;69940;53.120;8.764;2023-09-19T05:00:38;100682.00;;;16.55;75.63
79705;BME280;69940;53.120;8.764;2023-09-19T05:03:09;100684.00;;;16.54;75.67
79705;BME280;69940;53.120;8.764;2023-09-19T05:05:43;100688.00;;;16.52;75.63
79705;BME280;69940;53.120;8.764;2023-09-19T05:08:10;100690.00;;;16.50;75.69
79705;BME280;69940;53.120;8.764;2023-09-19T05:10:38;100691.00;;;16.49;75.66
79705;BME280;69940;53.120;8.764;2023-09-19T05:13:12;100696.00;;;16.49;75.56
79705;BME280;69940;53.120;8.764;2023-09-19T05:15:38;100700.00;;;16.49;75.54
79705;BME280;69940;53.120;8.764;2023-09-19T05:18:08;100705.00;;;16.50;75.58
79705;BME280;69940;53.120;8.764;2023-09-19T05:20:39;100707.00;;;16.50;75.57
79705;BME280;69940;53.120;8.764;2023-09-19T05:23:13;100709.00;;;16.51;75.56
79705;BME280;69940;53.120;8.764;2023-09-19T05:25:40;100709.00;;;16.53;75.46
79705;BME280;69940;53.120;8.764;2023-09-19T05:28:10;100709.00;;;16.54;75.48
79705;BME280;69940;53.120;8.764;2023-09-19T05:30:39;100706.00;;;16.56;75.57
79705;BME280;69940;53.120;8.764;2023-09-19T05:33:09;100705.00;;;16.57;75.62
79705;BME280;69940;53.120;8.764;2023-09-19T05:35:42;100706.00;;;16.59;75.58
79705;BME280;69940;53.120;8.764;2023-09-19T05:38:10;100711.00;;;16.60;75.63
79705;BME280;69940;53.120;8.764;2023-09-19T05:40:40;100714.00;;;16.61;75.56
79705;BME280;69940;53.120;8.764;2023-09-19T05:43:08;100716.00;;;16.63;75.61
79705;BME280;69940;53.120;8.764;2023-09-19T05:45:38;100718.00;;;16.64;75.54
79705;BME280;69940;53.120;8.764;2023-09-19T05:48:09;100718.00;;;16.65;75.52
79705;BME280;69940;53.120;8.764;2023-09-19T05:50:38;100716.00;;;16.67;75.48
79705;BME280;69940;53.120;8.764;2023-09-19T05:53:08;100716.00;;;16.68;75.49
79705;BME280;69940;53.120;8.764;2023-09-19T05:55:38;100717.00;;;16.69;75.41
79705;BME280;69940;53.120;8.764;2023-09-19T05:58:08;100717.00;;;16.71;75.41
79705;BME280;69940;53.120;8.764;2023-09-19T06:00:37;100719.00;;;16.73;75.42
79705;BME280;69940;53.120;8.764;2023-09-19T06:03:08;100720.00;;;16.75;75.49
79705;BME280;69940;53.120;8.764;2023-09-19T06:05:42;100724.00;;;16.77;75.31
79705;BME280;69940;53.120;8.764;2023-09-19T06:08:08;100729.00;;;16.79;75.28
79705;BME280;69940;53.120;8.764;2023-09-19T06:10:37;100735.00;;;16.81;75.29
79705;BME280;69940;53.120;8.764;2023-09-19T06:13:11;100739.00;;;16.82;75.21
79705;BME280;69940;53.120;8.764;2023-09-19T06:15:38;100743.00;;;16.83;75.25
79705;BME280;69940;53.120;8.764;2023-09-19T06:18:13;100744.00;;;16.85;75.12
79705;BME280;69940;53.120;8.764;2023-09-19T06:20:37;100745.00;;;16.87;75.08
79705;BME280;69940;53.120;8.764;2023-09-19T06:23:08;100743.00;;;16.89;74.89
79705;BME280;69940;53.120;8.764;2023-09-19T06:25:37;100744.00;;;16.91;74.83
79705;BME280;69940;53.120;8.764;2023-09-19T06:28:12;100743.00;;;16.94;74.60
79705;BME280;69940;53.120;8.764;2023-09-19T06:30:40;100743.00;;;16.96;74.50
79705;BME280;69940;53.120;8.764;2023-09-19T06:33:10;100744.00;;;16.97;74.51
79705;BME280;69940;53.120;8.764;2023-09-19T06:35:37;100746.00;;;16.98;74.32
79705;BME280;69940;53.120;8.764;2023-09-19T06:38:08;100745.00;;;16.99;74.15
79705;BME280;69940;53.120;8.764;2023-09-19T06:40:37;100749.00;;;17.00;73.87
79705;BME280;69940;53.120;8.764;2023-09-19T06:43:09;100748.00;;;17.01;73.65
79705;BME280;69940;53.120;8.764;2023-09-19T07:04:29;100779.00;;;21.67;65.94
79705;BME280;69940;53.120;8.764;2023-09-19T07:06:55;100783.00;;;20.97;67.69
79705;BME280;69940;53.120;8.764;2023-09-19T07:09:28;100787.00;;;20.31;68.88
79705;BME280;69940;53.120;8.764;2023-09-19T07:11:56;100789.00;;;19.74;69.41
79705;BME280;69940;53.120;8.764;2023-09-19T07:14:25;100792.00;;;19.26;69.81
79705;BME280;69940;53.120;8.764;2023-09-19T07:16:55;100793.00;;;18.87;70.13
79705;BME280;69940;53.120;8.764;2023-09-19T07:19:26;100796.00;;;18.55;70.49
79705;BME280;69940;53.120;8.764;2023-09-19T07:21:55;100799.00;;;18.32;70.49
79705;BME280;69940;53.120;8.764;2023-09-19T07:24:29;100801.00;;;18.14;70.37
79705;BME280;69940;53.120;8.764;2023-09-19T07:26:55;100801.00;;;18.01;70.28
79705;BME280;69940;53.120;8.764;2023-09-19T07:29:26;100803.00;;;17.90;70.17
79705;BME280;69940;53.120;8.764;2023-09-19T07:31:56;100802.00;;;17.81;70.01
79705;BME280;69940;53.120;8.764;2023-09-19T07:34:25;100803.00;;;17.75;69.99
79705;BME280;69940;53.120;8.764;2023-09-19T07:36:56;100804.00;;;17.70;70.06
79705;BME280;69940;53.120;8.764;2023-09-19T07:39:25;100806.00;;;17.67;70.02
79705;BME280;69940;53.120;8.764;2023-09-19T07:41:55;100806.00;;;17.66;69.87
79705;BME280;69940;53.120;8.764;2023-09-19T07:44:27;100805.00;;;17.66;69.94
79705;BME280;69940;53.120;8.764;2023-09-19T07:46:55;100804.00;;;17.68;69.66
79705;BME280;69940;53.120;8.764;2023-09-19T07:49:25;100803.00;;;17.72;69.42
79705;BME280;69940;53.120;8.764;2023-09-19T07:51:58;100799.00;;;17.75;69.34
79705;BME280;69940;53.120;8.764;2023-09-19T07:54:26;100800.00;;;17.78;69.21
79705;BME280;69940;53.120;8.764;2023-09-19T07:56:57;100801.00;;;17.82;69.06
79705;BME280;69940;53.120;8.764;2023-09-19T07:59:25;100802.00;;;17.85;69.12
79705;BME280;69940;53.120;8.764;2023-09-19T08:01:55;100805.00;;;17.88;69.05
79705;BME280;69940;53.120;8.764;2023-09-19T08:04:27;100805.00;;;17.91;68.77
79705;BME280;69940;53.120;8.764;2023-09-19T08:06:56;100806.00;;;17.94;68.54
79705;BME280;69940;53.120;8.764;2023-09-19T08:09:26;100809.00;;;17.97;68.09
79705;BME280;69940;53.120;8.764;2023-09-19T08:11:55;100811.00;;;18.00;67.66
79705;BME280;69940;53.120;8.764;2023-09-19T08:14:26;100811.00;;;18.04;67.46
79705;BME280;69940;53.120;8.764;2023-09-19T08:16:58;100810.00;;;18.07;67.27
79705;BME280;69940;53.120;8.764;2023-09-19T08:19:29;100812.00;;;18.13;67.41
79705;BME280;69940;53.120;8.764;2023-09-19T08:21:56;100812.00;;;18.19;67.52
79705;BME280;69940;53.120;8.764;2023-09-19T08:24:26;100813.00;;;18.25;67.21
79705;BME280;69940;53.120;8.764;2023-09-19T08:26:57;100813.00;;;18.30;66.80
79705;BME280;69940;53.120;8.764;2023-09-19T08:29:28;100812.00;;;18.34;66.67
79705;BME280;69940;53.120;8.764;2023-09-19T08:31:57;100810.00;;;18.37;66.41
79705;BME280;69940;53.120;8.764;2023-09-19T08:34:26;100810.00;;;18.39;66.43
79705;BME280;69940;53.120;8.764;2023-09-19T08:36:59;100811.00;;;18.41;66.58
79705;BME280;69940;53.120;8.764;2023-09-19T08:39:26;100811.00;;;18.43;66.78
79705;BME280;69940;53.120;8.764;2023-09-19T08:41:59;100813.00;;;18.43;66.01
79705;BME280;69940;53.120;8.764;2023-09-19T08:44:26;100814.00;;;18.44;66.33
79705;BME280;69940;53.120;8.764;2023-09-19T08:47:01;100814.00;;;18.45;66.26
79705;BME280;69940;53.120;8.764;2023-09-19T08:49:37;100815.00;;;18.48;66.22
79705;BME280;69940;53.120;8.764;2023-09-19T08:52:12;100816.00;;;18.51;66.07
79705;BME280;69940;53.120;8.764;2023-09-19T08:54:32;100817.00;;;18.52;65.74
79705;BME280;69940;53.120;8.764;2023-09-19T08:56:57;100818.00;;;18.51;65.87
79705;BME280;69940;53.120;8.764;2023-09-19T08:59:26;100817.00;;;18.51;65.62
79705;BME280;69940;53.120;8.764;2023-09-19T09:01:56;100819.00;;;18.52;66.07
79705;BME280;69940;53.120;8.764;2023-09-19T09:04:27;100820.00;;;18.54;65.48
79705;BME280;69940;53.120;8.764;2023-09-19T09:06:56;100822.00;;;18.56;65.37
79705;BME280;69940;53.120;8.764;2023-09-19T09:09:28;100827.00;;;18.58;65.17
79705;BME280;69940;53.120;8.764;2023-09-19T09:11:58;100828.00;;;18.61;65.22
79705;BME280;69940;53.120;8.764;2023-09-19T09:14:25;100830.00;;;18.62;65.27
79705;BME280;69940;53.120;8.764;2023-09-19T09:17:00;100830.00;;;18.64;65.57
79705;BME280;69940;53.120;8.764;2023-09-19T09:19:25;100830.00;;;18.67;65.60
79705;BME280;69940;53.120;8.764;2023-09-19T09:22:07;100829.00;;;18.67;64.96
79705;BME280;69940;53.120;8.764;2023-09-19T09:24:26;100829.00;;;18.69;65.36
79705;BME280;69940;53.120;8.764;2023-09-19T09:26:56;100833.00;;;18.70;65.32
79705;BME280;69940;53.120;8.764;2023-09-19T09:29:47;100831.00;;;18.69;64.57
79705;BME280;69940;53.120;8.764;2023-09-19T09:32:15;100829.00;;;18.70;64.59
79705;BME280;69940;53.120;8.764;2023-09-19T09:34:33;100830.00;;;18.72;64.82
79705;BME280;69940;53.120;8.764;2023-09-19T09:36:55;100829.00;;;18.76;63.96
79705;BME280;69940;53.120;8.764;2023-09-19T09:39:31;100830.00;;;18.80;63.77
79705;BME280;69940;53.120;8.764;2023-09-19T09:41:57;100832.00;;;18.83;62.77
79705;BME280;69940;53.120;8.764;2023-09-19T09:44:25;100837.00;;;18.87;62.88
79705;BME280;69940;53.120;8.764;2023-09-19T09:47:05;100840.00;;;18.90;62.32
79705;BME280;69940;53.120;8.764;2023-09-19T09:49:36;100839.00;;;18.92;61.79
79705;BME280;69940;53.120;8.764;2023-09-19T09:52:01;100840.00;;;18.94;61.83
79705;BME280;69940;53.120;8.764;2023-09-19T09:54:35;100844.00;;;18.96;62.09
79705;BME280;69940;53.120;8.764;2023-09-19T09:57:01;100846.00;;;18.96;61.89
79705;BME280;69940;53.120;8.764;2023-09-19T09:59:47;100848.00;;;18.98;62.12
79705;BME280;69940;53.120;8.764;2023-09-19T10:02:01;100845.00;;;19.01;62.02
79705;BME280;69940;53.120;8.764;2023-09-19T10:04:29;100843.00;;;19.06;62.35
79705;BME280;69940;53.120;8.764;2023-09-19T10:06:55;100842.00;;;19.12;62.09
79705;BME280;69940;53.120;8.764;2023-09-19T10:09:46;100841.00;;;19.15;62.00
79705;BME280;69940;53.120;8.764;2023-09-19T10:12:06;100843.00;;;19.17;62.42
79705;BME280;69940;53.120;8.764;2023-09-19T10:14:30;100841.00;;;19.17;62.54
79705;BME280;69940;53.120;8.764;2023-09-19T10:17:05;100841.00;;;19.15;62.44
79705;BME280;69940;53.120;8.764;2023-09-19T10:19:42;100844.00;;;19.13;62.63
79705;BME280;69940;53.120;8.764;2023-09-19T10:21:58;100846.00;;;19.09;62.22
79705;BME280;69940;53.120;8.764;2023-09-19T10:24:28;100843.00;;;19.06;62.26
79705;BME280;69940;53.120;8.764;2023-09-19T10:26:56;100842.00;;;19.03;62.52
79705;BME280;69940;53.120;8.764;2023-09-19T10:29:29;100847.00;;;19.02;62.46
79705;BME280;69940;53.120;8.764;2023-09-19T10:31:58;100848.00;;;19.03;62.59
79705;BME280;69940;53.120;8.764;2023-09-19T10:34:26;100849.00;;;19.06;62.66
79705;BME280;69940;53.120;8.764;2023-09-19T10:36:56;100849.00;;;19.10;62.53
79705;BME280;69940;53.120;8.764;2023-09-19T10:39:29;100844.00;;;19.14;61.78
79705;BME280;69940;53.120;8.764;2023-09-19T10:42:02;100848.00;;;19.17;61.53
79705;BME280;69940;53.120;8.764;2023-09-19T10:44:32;100847.00;;;19.19;61.79
79705;BME280;69940;53.120;8.764;2023-09-19T10:46:57;100845.00;;;19.22;62.37
79705;BME280;69940;53.120;8.764;2023-09-19T10:49:26;100846.00;;;19.26;62.02
79705;BME280;69940;53.120;8.764;2023-09-19T10:51:59;100844.00;;;19.30;61.55
79705;BME280;69940;53.120;8.764;2023-09-19T10:54:31;100842.00;;;19.35;61.90
79705;BME280;69940;53.120;8.764;2023-09-19T10:56:59;100841.00;;;19.38;61.16
79705;BME280;69940;53.120;8.764;2023-09-19T10:59:26;100838.00;;;19.40;61.00
79705;BME280;69940;53.120;8.764;2023-09-19T11:01:58;100837.00;;;19.43;61.48
79705;BME280;69940;53.120;8.764;2023-09-19T11:04:28;100836.00;;;19.46;61.55
79705;BME280;69940;53.120;8.764;2023-09-19T11:07:02;100836.00;;;19.49;61.66
79705;BME280;69940;53.120;8.764;2023-09-19T11:11:58;100838.00;;;19.52;59.98
79705;BME280;69940;53.120;8.764;2023-09-19T11:14:30;100835.00;;;19.53;60.36
79705;BME280;69940;53.120;8.764;2023-09-19T11:21:56;100836.00;;;19.60;60.25
79705;BME280;69940;53.120;8.764;2023-09-19T11:24:29;100833.00;;;19.61;60.06
79705;BME280;69940;53.120;8.764;2023-09-19T11:27:10;100834.00;;;19.64;60.45
79705;BME280;69940;53.120;8.764;2023-09-19T11:29:27;100832.00;;;19.67;60.32
79705;BME280;69940;53.120;8.764;2023-09-19T11:32:00;100832.00;;;19.71;60.29
79705;BME280;69940;53.120;8.764;2023-09-19T11:34:41;100830.00;;;19.72;59.71
79705;BME280;69940;53.120;8.764;2023-09-19T11:36:55;100830.00;;;19.72;59.37
79705;BME280;69940;53.120;8.764;2023-09-19T11:39:26;100827.00;;;19.70;59.45
79705;BME280;69940;53.120;8.764;2023-09-19T11:41:57;100826.00;;;19.69;59.70
79705;BME280;69940;53.120;8.764;2023-09-19T11:44:31;100825.00;;;19.68;59.37
79705;BME280;69940;53.120;8.764;2023-09-19T11:46:56;100822.00;;;19.68;59.72
79705;BME280;69940;53.120;8.764;2023-09-19T11:49:32;100822.00;;;19.71;60.00
79705;BME280;69940;53.120;8.764;2023-09-19T11:51:56;100820.00;;;19.73;58.25
79705;BME280;69940;53.120;8.764;2023-09-19T11:54:32;100822.00;;;19.77;58.43
79705;BME280;69940;53.120;8.764;2023-09-19T11:56:56;100821.00;;;19.80;58.43
79705;BME280;69940;53.120;8.764;2023-09-19T11:59:30;100822.00;;;19.82;57.79
79705;BME280;69940;53.120;8.764;2023-09-19T12:02:01;100824.00;;;19.83;58.17
79705;BME280;69940;53.120;8.764;2023-09-19T12:04:35;100826.00;;;19.82;58.40
79705;BME280;69940;53.120;8.764;2023-09-19T12:06:57;100827.00;;;19.82;58.64
79705;BME280;69940;53.120;8.764;2023-09-19T12:09:26;100828.00;;;19.83;58.84
79705;BME280;69940;53.120;8.764;2023-09-19T12:11:55;100826.00;;;19.87;58.87
79705;BME280;69940;53.120;8.764;2023-09-19T12:14:27;100825.00;;;19.91;58.11
79705;BME280;69940;53.120;8.764;2023-09-19T12:16:57;100823.00;;;19.96;57.91
79705;BME280;69940;53.120;8.764;2023-09-19T12:19:25;100817.00;;;19.99;58.10
79705;BME280;69940;53.120;8.764;2023-09-19T12:21:57;100811.00;;;20.00;57.99
79705;BME280;69940;53.120;8.764;2023-09-19T12:24:31;100808.00;;;20.00;57.97
79705;BME280;69940;53.120;8.764;2023-09-19T12:27:05;100807.00;;;20.00;57.83
79705;BME280;69940;53.120;8.764;2023-09-19T12:29:25;100806.00;;;20.01;57.98
79705;BME280;69940;53.120;8.764;2023-09-19T12:31:59;100808.00;;;20.01;56.93
79705;BME280;69940;53.120;8.764;2023-09-19T12:34:29;100807.00;;;20.04;58.12
79705;BME280;69940;53.120;8.764;2023-09-19T12:37:12;100804.00;;;20.10;57.76
79705;BME280;69940;53.120;8.764;2023-09-19T12:39:27;100803.00;;;20.17;56.93
79705;BME280;69940;53.120;8.764;2023-09-19T12:41:55;100801.00;;;20.23;56.95
79705;BME280;69940;53.120;8.764;2023-09-19T12:44:25;100798.00;;;20.26;57.41
79705;BME280;69940;53.120;8.764;2023-09-19T12:46:56;100796.00;;;20.27;56.78
79705;BME280;69940;53.120;8.764;2023-09-19T12:49:25;100791.00;;;20.25;56.57
79705;BME280;69940;53.120;8.764;2023-09-19T12:51:56;100788.00;;;20.26;57.29
79705;BME280;69940;53.120;8.764;2023-09-19T12:54:38;100785.00;;;20.27;57.12
79705;BME280;69940;53.120;8.764;2023-09-19T12:56:55;100780.00;;;20.27;57.01
79705;BME280;69940;53.120;8.764;2023-09-19T12:59:29;100774.00;;;20.29;57.00
79705;BME280;69940;53.120;8.764;2023-09-19T13:02:04;100768.00;;;20.31;57.52
79705;BME280;69940;53.120;8.764;2023-09-19T13:04:33;100765.00;;;20.32;57.91
79705;BME280;69940;53.120;8.764;2023-09-19T13:07:00;100760.00;;;20.32;58.30
79705;BME280;69940;53.120;8.764;2023-09-19T13:09:35;100759.00;;;20.30;58.19
79705;BME280;69940;53.120;8.764;2023-09-19T13:11:55;100758.00;;;20.27;58.69
79705;BME280;69940;53.120;8.764;2023-09-19T13:14:29;100754.00;;;20.23;58.84
79705;BME280;69940;53.120;8.764;2023-09-19T13:16:58;100752.00;;;20.20;59.42
79705;BME280;69940;53.120;8.764;2023-09-19T13:19:42;100750.00;;;20.20;59.40
79705;BME280;69940;53.120;8.764;2023-09-19T13:21:58;100747.00;;;20.21;59.27
79705;BME280;69940;53.120;8.764;2023-09-19T13:24:30;100747.00;;;20.25;59.06
79705;BME280;69940;53.120;8.764;2023-09-19T13:26:56;100747.00;;;20.29;58.70
79705;BME280;69940;53.120;8.764;2023-09-19T13:29:26;100745.00;;;20.32;58.56
79705;BME280;69940;53.120;8.764;2023-09-19T13:31:55;100743.00;;;20.32;59.09
79705;BME280;69940;53.120;8.764;2023-09-19T13:34:27;100740.00;;;20.33;58.84
79705;BME280;69940;53.120;8.764;2023-09-19T13:36:56;100735.00;;;20.35;59.05
79705;BME280;69940;53.120;8.764;2023-09-19T13:39:25;100734.00;;;20.40;59.03
79705;BME280;69940;53.120;8.764;2023-09-19T13:41:56;100736.00;;;20.44;59.17
79705;BME280;69940;53.120;8.764;2023-09-19T13:44:27;100737.00;;;20.48;59.12
79705;BME280;69940;53.120;8.764;2023-09-19T13:46:57;100735.00;;;20.50;58.94
79705;BME280;69940;53.120;8.764;2023-09-19T13:49:26;100737.00;;;20.51;58.74
79705;BME280;69940;53.120;8.764;2023-09-19T13:51:56;100737.00;;;20.53;59.13
79705;BME280;69940;53.120;8.764;2023-09-19T13:54:25;100736.00;;;20.57;59.25
79705;BME280;69940;53.120;8.764;2023-09-19T13:56:55;100737.00;;;20.60;59.12
79705;BME280;69940;53.120;8.764;2023-09-19T13:59:26;100735.00;;;20.65;58.73
79705;BME280;69940;53.120;8.764;2023-09-19T14:01:56;100734.00;;;20.69;58.84
79705;BME280;69940;53.120;8.764;2023-09-19T14:04:25;100734.00;;;20.71;58.32
79705;BME280;69940;53.120;8.764;2023-09-19T14:06:55;100734.00;;;20.73;58.12
79705;BME280;69940;53.120;8.764;2023-09-19T14:09:25;100734.00;;;20.75;57.98
79705;BME280;69940;53.120;8.764;2023-09-19T14:11:55;100730.00;;;20.75;58.00
79705;BME280;69940;53.120;8.764;2023-09-19T14:14:25;100727.00;;;20.76;58.67
79705;BME280;69940;53.120;8.764;2023-09-19T14:16:56;100730.00;;;20.76;58.36
79705;BME280;69940;53.120;8.764;2023-09-19T14:19:25;100728.00;;;20.75;58.34
79705;BME280;69940;53.120;8.764;2023-09-19T14:22:00;100725.00;;;20.74;58.84